Time;durP1;ratioP1;P1;durP2;ratioP2;P2;SDS_P1;SDS_P2;PMS_P1;PMS_P2;Temp;Humidity;BMP_temperature;BMP_pressure;BME280_temperature;BME280_humidity;BME280_pressure;Samples;Min_cycle;Max_cycle;Signal;HPM_P1;HPM_P2
2023/05/09 00:00:43;;;;;;;21.63;14.90;;;12.70;99.90;;;;;;5047701;28;20032;-87
2023/05/09 00:03:08;;;;;;;23.30;15.45;;;12.70;99.90;;;;;;5069741;28;20043;-86
2023/05/09 00:05:34;;;;;;;20.10;14.07;;;12.70;99.90;;;;;;5051545;28;20166;-86
2023/05/09 00:08:00;;;;;;;19.42;13.93;;;12.70;99.90;;;;;;5052566;28;20043;-86
2023/05/09 00:10:26;;;;;;;19.50;13.85;;;12.70;99.90;;;;;;5048876;28;20124;-86
2023/05/09 00:12:52;;;;;;;20.40;14.63;;;12.70;99.90;;;;;;5071461;28;20068;-87
2023/05/09 00:15:18;;;;;;;25.13;16.60;;;12.70;99.90;;;;;;5047421;28;20527;-86
2023/05/09 00:17:44;;;;;;;23.90;16.23;;;12.70;99.90;;;;;;5070924;28;20477;-87
2023/05/09 00:20:11;;;;;;;24.95;16.67;;;12.70;99.90;;;;;;5036348;28;20036;-86
2023/05/09 00:22:38;;;;;;;23.10;16.67;;;12.70;99.90;;;;;;5068856;28;20029;-86
2023/05/09 00:25:06;;;;;;;32.33;21.17;;;12.70;99.90;;;;;;5050544;28;20020;-86
2023/05/09 00:27:31;;;;;;;25.70;18.30;;;12.70;99.90;;;;;;5048101;28;20033;-87
2023/05/09 00:29:57;;;;;;;26.63;17.98;;;12.60;99.90;;;;;;5040495;28;20028;-87
2023/05/09 00:32:24;;;;;;;28.95;19.17;;;12.60;99.90;;;;;;5052569;28;20111;-87
2023/05/09 00:34:50;;;;;;;29.67;19.42;;;12.60;99.90;;;;;;5053066;28;20025;-86
2023/05/09 00:37:18;;;;;;;29.05;18.75;;;12.60;99.90;;;;;;5072393;28;20044;-86
2023/05/09 00:39:44;;;;;;;30.48;19.58;;;12.60;99.90;;;;;;5035576;28;20024;-87
2023/05/09 00:42:10;;;;;;;27.80;18.65;;;12.60;99.90;;;;;;5037178;28;20094;-86
2023/05/09 00:44:36;;;;;;;31.20;20.00;;;12.60;99.90;;;;;;5057162;28;20468;-86
2023/05/09 00:47:02;;;;;;;28.73;19.33;;;12.60;99.90;;;;;;5055297;28;20025;-86
2023/05/09 00:49:28;;;;;;;28.45;18.98;;;12.60;99.90;;;;;;5047539;28;20081;-86
2023/05/09 00:51:55;;;;;;;29.42;18.55;;;12.60;99.90;;;;;;5068971;28;20033;-87
2023/05/09 00:54:21;;;;;;;30.38;20.77;;;12.50;99.90;;;;;;5054020;28;20036;-86
2023/05/09 00:56:47;;;;;;;29.80;19.92;;;12.50;99.90;;;;;;5051744;28;20033;-86
2023/05/09 00:59:13;;;;;;;26.52;18.88;;;12.50;99.90;;;;;;5040160;28;20059;-87
2023/05/09 01:01:38;;;;;;;34.38;22.20;;;12.50;99.90;;;;;;5052405;28;20088;-86
2023/05/09 01:04:04;;;;;;;30.02;19.48;;;12.50;99.90;;;;;;5049757;28;20031;-87
2023/05/09 01:06:58;;;;;;;31.33;19.70;;;12.50;99.90;;;;;;5049314;28;20028;-87
2023/05/09 01:09:30;;;;;;;30.30;20.88;;;12.40;99.90;;;;;;5050059;28;20443;-87
2023/05/09 01:12:16;;;;;;;31.95;21.15;;;12.40;99.90;;;;;;5067921;28;20107;-86
2023/05/09 01:15:03;;;;;;;31.30;21.10;;;12.30;99.90;;;;;;5068101;28;20471;-87
2023/05/09 01:18:02;;;;;;;32.42;20.90;;;12.30;99.90;;;;;;5052970;28;20039;-86
2023/05/09 01:20:37;;;;;;;30.92;20.50;;;12.20;99.90;;;;;;5064242;28;21693;-86
2023/05/09 01:23:35;;;;;;;32.25;22.30;;;12.20;99.90;;;;;;5053673;28;20025;-87
2023/05/09 01:26:03;;;;;;;32.38;19.75;;;12.20;99.90;;;;;;5041229;28;20043;-87
2023/05/09 01:29:03;;;;;;;29.15;19.50;;;12.20;99.90;;;;;;5047027;28;20025;-87
2023/05/09 01:31:30;;;;;;;28.98;18.20;;;12.20;99.90;;;;;;5049563;28;20025;-87
2023/05/09 01:33:58;;;;;;;25.75;16.40;;;12.20;99.90;;;;;;5049319;28;20028;-87
2023/05/09 01:36:29;;;;;;;26.00;17.60;;;12.20;99.90;;;;;;5067015;28;20029;-87
2023/05/09 01:38:57;;;;;;;28.00;18.23;;;12.20;99.90;;;;;;5047386;28;20021;-87
2023/05/09 01:41:28;;;;;;;25.25;17.35;;;12.20;99.90;;;;;;5065912;28;20017;-86
2023/05/09 01:43:56;;;;;;;25.42;17.42;;;12.30;99.90;;;;;;5035333;28;20024;-87
2023/05/09 01:46:24;;;;;;;24.13;16.92;;;12.30;99.90;;;;;;5050962;28;20419;-85
2023/05/09 01:48:51;;;;;;;26.73;17.15;;;12.30;99.90;;;;;;5053347;28;20388;-87
2023/05/09 01:51:19;;;;;;;24.17;16.80;;;12.30;99.90;;;;;;5050804;28;20434;-87
2023/05/09 01:53:47;;;;;;;26.60;17.98;;;12.30;99.90;;;;;;5066670;28;20023;-87
2023/05/09 01:56:13;;;;;;;30.20;17.88;;;12.30;99.90;;;;;;5049321;28;20392;-87
2023/05/09 01:58:41;;;;;;;27.08;17.50;;;12.30;99.90;;;;;;5048781;28;20025;-87
2023/05/09 02:01:07;;;;;;;26.20;17.73;;;12.30;99.90;;;;;;5053901;28;20098;-86
2023/05/09 02:03:35;;;;;;;27.05;17.63;;;12.30;99.90;;;;;;5048829;28;20028;-86
2023/05/09 02:06:03;;;;;;;25.15;17.30;;;12.30;99.90;;;;;;5062855;28;20485;-87
2023/05/09 02:08:30;;;;;;;24.00;16.60;;;12.30;99.90;;;;;;5051035;28;20036;-87
2023/05/09 02:10:56;;;;;;;26.15;17.52;;;12.30;99.90;;;;;;5063508;28;20094;-87
2023/05/09 02:13:22;;;;;;;24.58;16.40;;;12.30;99.90;;;;;;5065015;28;20028;-87
2023/05/09 02:15:48;;;;;;;24.85;17.48;;;12.30;99.90;;;;;;5051266;28;20036;-86
2023/05/09 02:18:15;;;;;;;24.55;16.77;;;12.20;99.90;;;;;;5034453;28;20075;-86
2023/05/09 02:20:41;;;;;;;25.10;17.00;;;12.20;99.90;;;;;;5034742;28;20029;-86
2023/05/09 02:23:07;;;;;;;21.70;15.73;;;12.20;99.90;;;;;;5051326;28;20511;-87
2023/05/09 02:25:33;;;;;;;20.60;14.65;;;12.20;99.90;;;;;;5052689;28;20477;-86
2023/05/09 02:28:00;;;;;;;19.13;14.70;;;12.20;99.90;;;;;;5052432;28;20032;-86
2023/05/09 02:30:28;;;;;;;19.52;13.95;;;12.20;99.90;;;;;;5066454;28;20029;-86
2023/05/09 02:33:03;;;;;;;20.88;14.00;;;12.20;99.90;;;;;;5047883;28;20029;-85
2023/05/09 02:35:29;;;;;;;20.23;13.77;;;12.30;99.90;;;;;;5062869;28;20036;-86
2023/05/09 02:37:57;;;;;;;21.75;15.15;;;12.30;99.90;;;;;;5066800;28;20025;-86
2023/05/09 02:40:25;;;;;;;21.92;15.07;;;12.30;99.90;;;;;;5051126;28;20388;-86
2023/05/09 02:42:50;;;;;;;21.55;15.00;;;12.30;99.90;;;;;;5051054;28;20052;-86
2023/05/09 02:45:16;;;;;;;25.45;16.77;;;12.20;99.90;;;;;;5068341;28;20056;-86
2023/05/09 02:47:42;;;;;;;22.27;15.27;;;12.20;99.90;;;;;;5036491;28;20508;-86
2023/05/09 02:50:08;;;;;;;22.45;15.60;;;12.10;99.90;;;;;;5058900;28;20037;-87
2023/05/09 02:52:33;;;;;;;23.38;15.40;;;12.10;99.90;;;;;;5067768;28;20373;-87
2023/05/09 02:54:59;;;;;;;25.55;17.00;;;12.10;99.90;;;;;;5049324;28;20207;-87
2023/05/09 02:57:25;;;;;;;26.27;16.10;;;12.10;99.90;;;;;;5035934;28;20124;-87
2023/05/09 02:59:50;;;;;;;25.70;15.73;;;12.00;99.90;;;;;;5049898;28;20059;-87
2023/05/09 03:02:16;;;;;;;24.15;15.60;;;12.00;99.90;;;;;;5041985;28;20033;-87
2023/05/09 03:04:42;;;;;;;22.88;15.18;;;11.90;99.90;;;;;;5047877;28;20024;-86
2023/05/09 03:07:07;;;;;;;31.90;20.75;;;11.90;99.90;;;;;;5048250;28;20481;-86
2023/05/09 03:09:33;;;;;;;32.60;21.10;;;11.80;99.90;;;;;;5066557;28;20024;-87
2023/05/09 03:11:59;;;;;;;27.58;18.80;;;11.80;99.90;;;;;;5045450;28;20044;-87
2023/05/09 03:14:24;;;;;;;27.30;17.98;;;11.80;99.90;;;;;;5060141;28;20033;-86
2023/05/09 03:16:50;;;;;;;26.27;17.63;;;11.70;99.90;;;;;;5030011;28;20037;-87
2023/05/09 03:19:16;;;;;;;24.98;16.73;;;11.70;99.90;;;;;;5064426;28;20025;-86
2023/05/09 03:21:41;;;;;;;26.77;17.90;;;11.80;99.90;;;;;;5036234;28;20032;-87
2023/05/09 03:24:09;;;;;;;23.25;15.45;;;11.80;99.90;;;;;;5051176;28;20037;-87
2023/05/09 03:26:34;;;;;;;27.20;17.77;;;11.80;99.90;;;;;;5051617;28;20492;-87
2023/05/09 03:29:01;;;;;;;25.77;17.83;;;11.80;99.90;;;;;;5032699;28;20036;-87
2023/05/09 03:31:26;;;;;;;24.00;15.55;;;11.80;99.90;;;;;;5048734;28;20454;-87
2023/05/09 03:33:52;;;;;;;26.77;17.58;;;11.70;99.90;;;;;;5051649;28;20040;-87
2023/05/09 03:36:19;;;;;;;27.30;17.60;;;11.70;99.90;;;;;;5047030;28;20037;-87
2023/05/09 03:38:44;;;;;;;26.65;16.50;;;11.70;99.90;;;;;;5053123;28;20504;-87
2023/05/09 03:41:12;;;;;;;24.20;16.67;;;11.70;99.90;;;;;;5030699;28;20033;-87
2023/05/09 03:43:38;;;;;;;23.13;15.10;;;11.70;99.90;;;;;;5055182;28;20021;-82
2023/05/09 03:46:03;;;;;;;20.15;13.88;;;11.60;99.90;;;;;;5067462;28;20035;-82
2023/05/09 03:48:29;;;;;;;20.15;13.73;;;11.60;99.90;;;;;;5039222;28;20041;-82
2023/05/09 03:50:55;;;;;;;21.67;15.07;;;11.60;99.90;;;;;;5068241;28;20552;-82
2023/05/09 03:53:21;;;;;;;21.30;15.15;;;11.60;99.90;;;;;;5069961;28;20028;-82
2023/05/09 03:55:46;;;;;;;21.23;14.60;;;11.60;99.90;;;;;;5052964;28;20112;-82
2023/05/09 03:58:12;;;;;;;19.52;14.15;;;11.60;99.90;;;;;;5074351;28;20041;-82
2023/05/09 04:00:39;;;;;;;18.75;13.25;;;11.60;99.90;;;;;;5057654;28;20024;-81
2023/05/09 04:03:04;;;;;;;19.50;13.02;;;11.70;99.90;;;;;;5048761;28;20136;-82
2023/05/09 04:05:32;;;;;;;20.00;13.65;;;11.70;99.90;;;;;;5053149;28;20168;-82
2023/05/09 04:07:58;;;;;;;19.42;13.85;;;11.70;99.90;;;;;;5034368;28;20036;-82
2023/05/09 04:10:26;;;;;;;17.50;12.35;;;11.80;99.90;;;;;;5053905;28;20094;-82
2023/05/09 04:12:52;;;;;;;16.38;12.45;;;11.80;99.90;;;;;;5068172;28;20400;-82
2023/05/09 04:15:18;;;;;;;18.88;12.57;;;11.90;99.90;;;;;;5053092;28;20043;-82
2023/05/09 04:17:43;;;;;;;17.02;12.15;;;11.90;99.90;;;;;;5071679;28;20408;-82
2023/05/09 04:20:10;;;;;;;20.10;12.93;;;11.90;99.90;;;;;;5053052;28;20029;-82
2023/05/09 04:22:36;;;;;;;16.58;11.68;;;11.90;99.90;;;;;;5019335;28;20075;-82
2023/05/09 04:25:03;;;;;;;15.80;11.05;;;11.90;99.90;;;;;;5018028;28;20052;-82
2023/05/09 04:27:28;;;;;;;16.90;11.93;;;11.90;99.90;;;;;;5068229;28;20032;-82
2023/05/09 04:29:54;;;;;;;16.80;10.93;;;11.90;99.90;;;;;;5075565;28;20029;-82
2023/05/09 04:32:22;;;;;;;15.80;10.50;;;12.00;99.90;;;;;;5069612;28;20043;-82
2023/05/09 04:34:48;;;;;;;14.55;10.45;;;11.90;99.90;;;;;;5036608;28;20053;-82
2023/05/09 04:37:14;;;;;;;16.95;11.57;;;12.00;99.90;;;;;;5046906;28;20040;-82
2023/05/09 04:39:39;;;;;;;17.30;11.50;;;12.00;99.90;;;;;;5072059;28;20110;-82
2023/05/09 04:42:05;;;;;;;15.88;10.50;;;12.00;99.90;;;;;;5052320;28;20027;-81
2023/05/09 04:44:32;;;;;;;17.55;12.68;;;12.00;99.90;;;;;;5069334;28;20036;-82
2023/05/09 04:46:57;;;;;;;20.70;13.88;;;12.00;99.90;;;;;;5048201;28;20036;-82
2023/05/09 04:49:23;;;;;;;20.23;14.35;;;12.10;99.90;;;;;;5039364;28;20431;-81
2023/05/09 04:51:51;;;;;;;20.85;14.18;;;12.00;99.90;;;;;;5047851;28;20087;-82
2023/05/09 04:54:16;;;;;;;23.67;15.60;;;12.00;99.90;;;;;;5054514;28;20032;-82
2023/05/09 04:56:42;;;;;;;21.27;14.95;;;12.00;99.90;;;;;;5058627;28;20036;-81
2023/05/09 04:59:08;;;;;;;24.98;16.27;;;12.00;99.90;;;;;;5043291;28;20515;-82
2023/05/09 05:01:33;;;;;;;23.17;16.08;;;12.00;99.90;;;;;;5068996;28;20445;-82
2023/05/09 05:03:59;;;;;;;29.13;18.48;;;12.00;99.90;;;;;;5056432;28;20032;-82
2023/05/09 05:06:25;;;;;;;28.55;18.67;;;12.10;99.90;;;;;;5068992;28;20081;-82
2023/05/09 05:08:50;;;;;;;23.52;15.38;;;12.00;99.90;;;;;;5053969;28;20029;-82
2023/05/09 05:11:19;;;;;;;28.13;18.23;;;12.10;99.90;;;;;;5055169;28;20031;-81
2023/05/09 05:13:45;;;;;;;28.35;19.05;;;12.20;99.90;;;;;;5021256;28;20032;-82
2023/05/09 05:16:10;;;;;;;29.40;17.90;;;12.20;99.90;;;;;;5065700;28;20041;-81
2023/05/09 05:18:36;;;;;;;28.30;18.83;;;12.30;99.90;;;;;;5068816;28;20386;-81
2023/05/09 05:21:02;;;;;;;27.02;17.67;;;12.40;99.90;;;;;;5054427;28;20024;-82
2023/05/09 05:23:27;;;;;;;21.17;13.85;;;12.50;99.90;;;;;;5068414;28;20033;-82
2023/05/09 05:25:53;;;;;;;27.02;17.05;;;12.50;99.90;;;;;;5069612;28;20174;-81
2023/05/09 05:28:19;;;;;;;21.83;15.18;;;12.60;99.90;;;;;;5036913;28;20400;-82
2023/05/09 05:30:44;;;;;;;28.75;19.45;;;12.70;99.90;;;;;;5068853;28;20029;-82
2023/05/09 05:33:10;;;;;;;24.17;16.10;;;12.80;99.90;;;;;;5068101;28;21358;-82
2023/05/09 05:35:36;;;;;;;26.73;16.50;;;12.80;99.90;;;;;;5052150;28;20127;-82
2023/05/09 05:38:01;;;;;;;29.88;18.85;;;12.80;99.90;;;;;;5073611;28;20036;-82
2023/05/09 05:40:27;;;;;;;24.00;16.27;;;12.80;99.90;;;;;;5052527;28;20048;-81
2023/05/09 05:42:53;;;;;;;24.08;14.88;;;12.80;99.90;;;;;;5053708;28;20081;-82
2023/05/09 05:45:19;;;;;;;19.50;13.80;;;12.70;99.90;;;;;;5053447;28;20032;-82
2023/05/09 05:47:45;;;;;;;18.40;11.32;;;12.70;99.90;;;;;;5073259;28;20049;-81
2023/05/09 05:50:11;;;;;;;13.40;9.27;;;12.70;99.90;;;;;;5048952;28;20029;-82
2023/05/09 05:52:37;;;;;;;15.77;10.07;;;12.70;99.90;;;;;;5051746;28;20413;-80
2023/05/09 05:55:03;;;;;;;14.55;9.75;;;12.70;99.90;;;;;;5051882;28;20085;-81
2023/05/09 05:57:29;;;;;;;19.30;13.02;;;12.70;99.90;;;;;;5054355;28;20969;-81
2023/05/09 05:59:55;;;;;;;16.30;11.05;;;12.70;99.90;;;;;;5035436;28;20097;-81
2023/05/09 06:02:21;;;;;;;13.73;8.73;;;12.70;99.90;;;;;;5069628;28;20062;-82
2023/05/09 06:04:47;;;;;;;20.83;13.23;;;12.70;99.90;;;;;;5070579;28;20025;-82
2023/05/09 06:07:12;;;;;;;16.17;9.75;;;12.70;99.90;;;;;;5055379;28;20033;-82
2023/05/09 06:09:39;;;;;;;15.07;9.27;;;12.80;99.90;;;;;;5076204;28;20105;-82
2023/05/09 06:12:05;;;;;;;18.05;11.82;;;12.80;99.90;;;;;;5070228;28;20378;-81
2023/05/09 06:14:31;;;;;;;14.50;10.30;;;12.80;99.90;;;;;;5076363;28;20024;-82
2023/05/09 06:16:58;;;;;;;16.00;9.23;;;12.80;99.90;;;;;;5057733;28;20051;-82
2023/05/09 06:19:23;;;;;;;14.60;9.77;;;12.90;99.90;;;;;;5056576;28;20036;-82
2023/05/09 06:21:49;;;;;;;13.65;9.48;;;12.90;99.90;;;;;;5055849;28;20029;-82
2023/05/09 06:24:15;;;;;;;18.23;11.77;;;13.00;99.90;;;;;;5039307;28;20123;-82
2023/05/09 06:26:40;;;;;;;18.52;11.52;;;12.90;99.90;;;;;;5056906;28;20048;-82
2023/05/09 06:29:06;;;;;;;14.45;9.50;;;12.90;99.90;;;;;;5056947;28;20029;-82
2023/05/09 06:31:37;;;;;;;17.67;11.88;;;12.90;99.90;;;;;;5064268;28;20025;-82
2023/05/09 06:34:05;;;;;;;19.52;13.05;;;12.80;99.90;;;;;;5077205;28;20031;-82
2023/05/09 06:36:32;;;;;;;20.63;13.57;;;12.80;99.90;;;;;;5076814;28;20439;-82
2023/05/09 06:38:58;;;;;;;19.63;12.75;;;12.80;99.90;;;;;;5076825;28;20012;-82
2023/05/09 06:41:24;;;;;;;16.67;11.25;;;12.80;99.90;;;;;;5076212;28;20017;-82
2023/05/09 06:43:50;;;;;;;16.02;10.63;;;12.80;99.90;;;;;;5077170;28;20017;-82
2023/05/09 06:46:16;;;;;;;16.25;11.55;;;12.80;99.90;;;;;;5058998;28;20033;-82
2023/05/09 06:48:42;;;;;;;17.45;11.88;;;12.90;99.90;;;;;;5077540;28;20029;-82
2023/05/09 06:51:08;;;;;;;17.85;12.43;;;13.00;99.90;;;;;;5059735;28;20036;-82
2023/05/09 06:53:33;;;;;;;15.88;11.07;;;13.20;99.90;;;;;;5079059;28;20028;-83
2023/05/09 06:55:59;;;;;;;15.80;11.05;;;13.40;99.90;;;;;;5076618;28;20028;-83
2023/05/09 06:58:26;;;;;;;16.20;10.52;;;13.60;99.90;;;;;;5075797;28;20025;-83
2023/05/09 07:00:52;;;;;;;15.45;9.07;;;13.80;99.90;;;;;;5061971;28;20488;-82
2023/05/09 07:03:18;;;;;;;14.52;9.40;;;14.00;99.90;;;;;;5079085;28;20043;-82
2023/05/09 07:05:43;;;;;;;13.65;9.15;;;14.10;99.90;;;;;;5097411;28;20050;-83
2023/05/09 07:08:09;;;;;;;12.73;8.75;;;14.20;99.90;;;;;;5079216;28;20036;-82
2023/05/09 07:10:35;;;;;;;12.77;8.23;;;14.40;99.90;;;;;;5096281;28;20077;-82
2023/05/09 07:13:01;;;;;;;11.77;8.05;;;14.50;99.90;;;;;;5077898;28;20077;-82
2023/05/09 07:15:26;;;;;;;12.48;8.48;;;14.50;99.90;;;;;;5078273;28;20039;-82
2023/05/09 07:17:52;;;;;;;8.48;6.57;;;14.70;99.90;;;;;;5095598;28;20051;-82
2023/05/09 07:20:18;;;;;;;7.63;5.07;;;14.80;99.90;;;;;;5077511;28;20036;-82
2023/05/09 07:22:44;;;;;;;6.47;5.03;;;14.90;99.90;;;;;;5095149;28;20028;-82
2023/05/09 07:25:09;;;;;;;8.50;5.80;;;14.90;99.90;;;;;;5076636;28;20031;-82
2023/05/09 07:27:35;;;;;;;9.18;6.03;;;15.00;99.90;;;;;;5094087;28;20028;-82
2023/05/09 07:30:05;;;;;;;10.27;5.57;;;15.10;99.90;;;;;;5076200;28;20024;-82
2023/05/09 07:32:31;;;;;;;10.02;6.65;;;15.20;99.90;;;;;;5077141;28;20033;-81
2023/05/09 07:34:57;;;;;;;9.80;6.68;;;15.30;99.90;;;;;;5072709;28;20078;-81
2023/05/09 07:37:22;;;;;;;8.60;6.90;;;15.50;99.90;;;;;;5055844;28;20036;-81
2023/05/09 07:39:48;;;;;;;9.40;6.85;;;15.50;99.90;;;;;;5073865;28;20029;-81
2023/05/09 07:42:15;;;;;;;9.27;6.38;;;15.60;99.90;;;;;;5039308;28;20028;-82
2023/05/09 07:44:40;;;;;;;8.77;6.28;;;15.60;99.90;;;;;;5055903;28;20370;-81
2023/05/09 07:47:07;;;;;;;8.73;6.38;;;15.80;99.90;;;;;;5072477;28;20039;-81
2023/05/09 07:49:33;;;;;;;9.23;6.53;;;15.90;99.90;;;;;;5055841;28;20028;-81
2023/05/09 07:51:59;;;;;;;8.38;6.47;;;16.00;99.90;;;;;;5055802;28;20508;-82
2023/05/09 07:54:25;;;;;;;9.18;6.05;;;16.10;99.90;;;;;;5072431;28;20392;-81
2023/05/09 07:56:50;;;;;;;9.15;5.93;;;16.20;99.90;;;;;;5038970;28;20025;-81
2023/05/09 07:59:17;;;;;;;7.80;5.72;;;16.20;99.90;;;;;;5055863;28;20505;-81
2023/05/09 08:01:42;;;;;;;7.25;4.45;;;16.30;99.90;;;;;;5082735;28;20048;-81
2023/05/09 08:04:08;;;;;;;7.70;5.50;;;16.40;99.90;;;;;;5075739;28;20116;-81
2023/05/09 08:06:34;;;;;;;8.07;4.82;;;16.50;99.90;;;;;;5075600;28;20485;-81
2023/05/09 08:09:00;;;;;;;5.55;3.88;;;16.70;99.90;;;;;;5042552;28;20086;-81
2023/05/09 08:11:26;;;;;;;4.00;2.30;;;16.80;99.90;;;;;;5075758;28;20442;-81
2023/05/09 08:13:52;;;;;;;3.70;2.38;;;16.90;99.90;;;;;;5059230;28;20033;-81
2023/05/09 08:16:18;;;;;;;3.42;2.47;;;17.00;99.90;;;;;;5075338;28;20096;-82
2023/05/09 08:18:44;;;;;;;4.78;2.97;;;17.20;99.90;;;;;;5058965;28;20052;-81
2023/05/09 08:21:10;;;;;;;4.30;2.95;;;17.20;99.90;;;;;;5093653;28;20383;-81
2023/05/09 08:23:35;;;;;;;5.18;3.15;;;17.30;99.90;;;;;;5061235;28;20480;-82
2023/05/09 08:26:01;;;;;;;5.32;3.15;;;17.40;99.90;;;;;;5079680;28;20036;-82
2023/05/09 08:28:27;;;;;;;6.03;3.35;;;17.50;99.90;;;;;;5063566;28;20024;-81
2023/05/09 08:30:55;;;;;;;5.30;3.72;;;17.50;99.90;;;;;;5080204;28;20036;-81
2023/05/09 08:33:21;;;;;;;4.78;3.60;;;17.40;99.90;;;;;;5063412;28;20036;-81
2023/05/09 08:35:50;;;;;;;5.30;3.92;;;17.30;99.90;;;;;;5062160;28;20051;-81
2023/05/09 08:38:16;;;;;;;6.28;4.70;;;17.30;99.90;;;;;;5078599;28;20384;-81
2023/05/09 08:40:42;;;;;;;6.10;4.10;;;17.30;99.90;;;;;;5045409;28;20032;-81
2023/05/09 08:43:07;;;;;;;4.00;3.03;;;17.50;99.90;;;;;;5096735;28;20163;-81
2023/05/09 08:46:04;;;;;;;7.65;4.10;;;17.60;99.90;;;;;;5062050;28;20078;-81
2023/05/09 08:48:30;;;;;;;5.40;2.90;;;17.80;99.90;;;;;;5077938;28;20032;-81
2023/05/09 08:50:57;;;;;;;4.43;2.72;;;18.00;99.90;;;;;;5078752;28;20032;-81
2023/05/09 08:53:23;;;;;;;4.65;2.40;;;18.20;99.90;;;;;;5078642;28;20035;-81
2023/05/09 08:55:52;;;;;;;3.60;2.30;;;18.50;99.90;;;;;;5061500;28;20028;-81
2023/05/09 08:58:18;;;;;;;4.75;2.70;;;18.50;99.90;;;;;;5062030;28;20028;-81
2023/05/09 09:00:46;;;;;;;2.88;2.33;;;18.50;99.90;;;;;;5078543;28;20073;-81
2023/05/09 09:03:11;;;;;;;4.22;2.42;;;18.50;99.90;;;;;;5096556;28;20073;-81
2023/05/09 09:05:41;;;;;;;3.58;2.88;;;18.70;99.90;;;;;;5062121;28;20024;-81
2023/05/09 09:08:08;;;;;;;2.88;1.95;;;18.70;99.90;;;;;;5078051;28;20036;-80
2023/05/09 09:10:34;;;;;;;3.17;2.05;;;18.80;99.90;;;;;;5096454;28;20078;-80
2023/05/09 09:13:03;;;;;;;2.00;1.30;;;18.90;99.90;;;;;;5078085;28;20028;-80
2023/05/09 09:15:35;;;;;;;1.98;1.30;;;19.00;99.90;;;;;;5078015;28;20028;-80
2023/05/09 09:18:17;;;;;;;2.63;1.60;;;19.00;99.90;;;;;;5078194;28;20035;-80
2023/05/09 09:21:08;;;;;;;0.85;0.68;;;19.00;99.90;;;;;;5096187;28;20027;-80
2023/05/09 09:23:36;;;;;;;2.55;1.52;;;19.20;99.90;;;;;;5096430;28;20069;-80
2023/05/09 09:26:05;;;;;;;2.20;1.60;;;19.30;99.90;;;;;;5077728;28;20032;-81
2023/05/09 09:28:31;;;;;;;3.25;1.30;;;19.30;99.90;;;;;;5061539;28;20036;-80
2023/05/09 09:30:57;;;;;;;2.38;1.60;;;19.30;99.90;;;;;;5057040;28;20028;-80
2023/05/09 09:33:24;;;;;;;2.08;1.27;;;19.20;99.90;;;;;;5075969;28;20154;-80
2023/05/09 09:35:51;;;;;;;3.13;1.40;;;19.20;99.90;;;;;;5056426;28;20056;-80
2023/05/09 09:38:18;;;;;;;2.50;1.60;;;19.30;99.90;;;;;;5057520;28;20028;-80
2023/05/09 09:41:04;;;;;;;2.95;2.10;;;19.50;99.90;;;;;;5057575;28;20473;-80
2023/05/09 09:43:31;;;;;;;3.00;1.80;;;19.70;99.90;;;;;;5040599;28;20614;-81
2023/05/09 09:46:00;;;;;;;3.20;2.00;;;19.80;99.90;;;;;;5057422;28;20534;-80
2023/05/09 09:48:31;;;;;;;2.25;1.33;;;19.90;99.90;;;;;;5057603;28;20086;-80
2023/05/09 09:50:56;;;;;;;3.60;1.20;;;20.10;99.90;;;;;;5075791;28;20029;-80
2023/05/09 09:53:22;;;;;;;2.83;1.35;;;20.20;99.90;;;;;;5059530;28;20028;-81
2023/05/09 09:55:52;;;;;;;2.55;2.00;;;20.30;99.90;;;;;;5044704;28;20024;-81
2023/05/09 09:58:23;;;;;;;3.90;2.20;;;20.20;99.90;;;;;;5059792;28;20120;-81
2023/05/09 10:01:07;;;;;;;4.30;2.35;;;20.10;99.90;;;;;;5059545;28;20032;-81
2023/05/09 10:03:38;;;;;;;3.33;2.53;;;20.00;99.90;;;;;;5077240;28;20094;-81
2023/05/09 10:06:04;;;;;;;3.67;2.30;;;19.80;99.90;;;;;;5077027;28;20027;-81
2023/05/09 10:08:30;;;;;;;3.67;2.15;;;19.70;99.90;;;;;;5026064;28;20067;-81
2023/05/09 10:10:58;;;;;;;2.50;1.60;;;19.60;99.90;;;;;;5042350;28;20392;-81
2023/05/09 10:13:25;;;;;;;2.53;1.60;;;19.70;99.90;;;;;;5059134;28;20387;-81
2023/05/09 10:15:51;;;;;;;5.40;2.20;;;19.90;99.90;;;;;;5076688;28;20025;-81
2023/05/09 10:18:20;;;;;;;3.53;2.30;;;20.10;99.90;;;;;;5026014;28;20031;-81
2023/05/09 10:20:46;;;;;;;2.03;1.40;;;20.20;99.90;;;;;;5042870;28;20024;-81
2023/05/09 10:23:14;;;;;;;1.98;1.33;;;20.30;99.90;;;;;;5059176;28;20029;-81
2023/05/09 10:25:46;;;;;;;2.88;1.10;;;20.50;99.90;;;;;;5076504;28;20500;-80
2023/05/09 10:28:17;;;;;;;1.95;1.17;;;20.60;99.90;;;;;;5076523;28;20033;-81
2023/05/09 10:31:01;;;;;;;;;;;20.70;99.10;;;;;;5059323;28;20028;-81
2023/05/09 10:33:36;;;;;;;2.90;1.00;;;20.80;98.30;;;;;;5076178;28;19951;-80
2023/05/09 10:36:03;;;;;;;4.10;1.10;;;20.90;97.80;;;;;;5074174;28;20028;-80
2023/05/09 10:38:30;;;;;;;2.63;1.08;;;21.10;96.10;;;;;;5073926;28;20039;-80
2023/05/09 10:40:56;;;;;;;3.05;1.20;;;21.10;94.90;;;;;;5074143;28;20051;-80
2023/05/09 10:43:24;;;;;;;3.03;1.58;;;21.00;96.20;;;;;;5074007;28;20025;-80
2023/05/09 10:45:50;;;;;;;2.70;1.40;;;20.90;99.80;;;;;;5056658;28;20131;-79
2023/05/09 10:48:17;;;;;;;2.15;1.10;;;20.90;98.40;;;;;;5074244;28;20033;-80
2023/05/09 10:50:45;;;;;;;1.63;1.08;;;21.00;97.30;;;;;;5073264;28;20028;-80
2023/05/09 10:53:13;;;;;;;1.75;1.20;;;21.10;96.70;;;;;;5056966;28;20115;-80
2023/05/09 10:55:49;;;;;;;2.00;1.17;;;21.10;95.90;;;;;;5074423;28;20021;-80
2023/05/09 10:58:35;;;;;;;1.58;0.93;;;21.30;97.20;;;;;;5074272;28;20051;-80
2023/05/09 11:01:03;;;;;;;1.15;0.52;;;21.50;95.10;;;;;;5074538;28;20023;-80
2023/05/09 11:03:55;;;;;;;1.80;0.95;;;21.50;91.90;;;;;;5073515;28;20027;-81
2023/05/09 11:06:44;;;;;;;1.90;0.82;;;21.50;92.50;;;;;;5073082;28;20068;-81
2023/05/09 11:09:51;;;;;;;1.45;0.75;;;21.60;91.80;;;;;;5074300;28;20086;-81
2023/05/09 11:12:22;;;;;;;0.93;0.40;;;21.70;91.40;;;;;;5012460;28;20026;-80
2023/05/09 11:14:51;;;;;;;1.50;0.73;;;21.90;91.90;;;;;;5012683;28;20521;-80
2023/05/09 11:17:19;;;;;;;1.27;0.50;;;22.10;91.60;;;;;;5045818;28;20051;-80
2023/05/09 11:19:45;;;;;;;2.90;0.50;;;22.20;88.00;;;;;;5074283;28;20020;-80
2023/05/09 11:22:36;;;;;;;1.00;0.50;;;22.20;89.60;;;;;;5074118;28;20116;-80
2023/05/09 11:25:03;;;;;;;;;;;22.20;89.40;;;;;;5057200;28;20572;-81
2023/05/09 11:27:43;;;;;;;0.70;0.50;;;22.30;84.60;;;;;;5074036;28;19968;-80
2023/05/09 11:30:14;;;;;;;0.70;0.50;;;22.40;86.80;;;;;;5072803;28;20028;-78
2023/05/09 11:32:57;;;;;;;0.80;0.60;;;22.60;87.10;;;;;;5072801;28;20056;-78
2023/05/09 11:35:25;;;;;;;1.13;0.50;;;22.80;85.60;;;;;;5074475;28;20059;-78
2023/05/09 11:37:59;;;;;;;1.27;0.57;;;22.90;85.70;;;;;;5073882;28;20048;-78
2023/05/09 11:40:25;;;;;;;0.70;0.40;;;23.10;86.60;;;;;;5074104;28;20031;-78
2023/05/09 11:42:54;;;;;;;1.67;0.40;;;23.20;83.50;;;;;;5055181;28;20025;-77
2023/05/09 11:45:25;;;;;;;1.65;0.47;;;23.20;79.50;;;;;;5034723;28;20089;-77
2023/05/09 11:47:52;;;;;;;1.20;0.60;;;23.30;78.70;;;;;;5034675;28;20052;-77
2023/05/09 11:50:19;;;;;;;;;;;23.40;80.10;;;;;;5051457;28;20017;-78
2023/05/09 11:52:46;;;;;;;0.77;0.45;;;23.20;82.70;;;;;;5051877;28;19909;-77
2023/05/09 11:55:17;;;;;;;0.60;0.40;;;23.20;79.10;;;;;;5051644;28;20385;-77
2023/05/09 11:57:48;;;;;;;1.13;0.40;;;23.20;76.20;;;;;;5034019;28;20585;-77
2023/05/09 12:00:19;;;;;;;1.30;0.50;;;23.20;78.30;;;;;;5038381;28;20109;-78
2023/05/09 12:02:45;;;;;;;;;;;23.30;75.80;;;;;;5076045;28;20044;-78
2023/05/09 12:05:15;;;;;;;;;;;23.40;76.10;;;;;;5078054;28;19999;-77
2023/05/09 12:07:41;;;;;;;;;;;23.40;77.90;;;;;;5077953;28;20006;-77
2023/05/09 12:10:07;;;;;;;;;;;23.40;77.00;;;;;;5078201;28;19937;-78
2023/05/09 12:12:34;;;;;;;;;;;23.60;75.80;;;;;;5077844;28;19911;-78
2023/05/09 12:15:03;;;;;;;;;;;23.60;74.90;;;;;;5077698;28;19915;-77
2023/05/09 12:17:29;;;;;;;;;;;23.60;70.60;;;;;;5059281;28;19912;-78
2023/05/09 12:19:57;;;;;;;;;;;23.40;70.80;;;;;;5077829;28;19915;-77
2023/05/09 12:22:22;;;;;;;;;;;23.40;73.20;;;;;;5077596;28;19911;-77
2023/05/09 12:24:48;;;;;;;;;;;23.50;71.70;;;;;;5077521;28;19908;-77
2023/05/09 12:27:13;;;;;;;;;;;23.60;71.60;;;;;;5077512;28;19908;-77
2023/05/09 12:29:41;;;;;;;;;;;23.70;71.30;;;;;;5059684;28;20292;-77
2023/05/09 12:32:06;;;;;;;;;;;23.80;73.30;;;;;;5059721;28;19998;-77
2023/05/09 12:34:32;;;;;;;;;;;23.80;70.10;;;;;;5077972;28;20433;-77
2023/05/09 12:36:58;;;;;;;;;;;23.90;70.20;;;;;;5077633;28;19912;-77
2023/05/09 12:39:25;;;;;;;;;;;23.80;71.90;;;;;;5077208;28;19957;-78
2023/05/09 12:41:51;;;;;;;;;;;23.90;71.20;;;;;;5077843;28;19914;-77
2023/05/09 12:44:17;;;;;;;;;;;23.90;70.50;;;;;;5075854;28;19904;-77